Time;durP1;ratioP1;P1;durP2;ratioP2;P2;SDS_P1;SDS_P2;PMS_P1;PMS_P2;Temp;Humidity;BMP_temperature;BMP_pressure;BME280_temperature;BME280_humidity;BME280_pressure;Samples;Min_cycle;Max_cycle;Signal;HPM_P1;HPM_P2
2021/07/18 00:01:55;;;;;;;3.67;2.37;;;25.20;58.80;;;;;;5108525;28;20781;-64
2021/07/18 00:04:27;;;;;;;3.10;2.10;;;25.20;58.90;;;;;;5095475;28;20606;-64
2021/07/18 00:06:58;;;;;;;2.30;2.10;;;25.30;59.00;;;;;;5095957;28;20200;-64
2021/07/18 00:09:29;;;;;;;3.67;2.27;;;25.30;59.00;;;;;;5105586;28;20220;-64
2021/07/18 00:12:01;;;;;;;2.70;2.00;;;25.30;58.90;;;;;;5087725;28;20201;-64
2021/07/18 00:14:32;;;;;;;2.67;2.13;;;25.30;58.90;;;;;;5110370;27;20712;-64
2021/07/18 00:17:04;;;;;;;3.10;2.40;;;25.30;58.90;;;;;;5103108;28;20222;-64
2021/07/18 00:19:34;;;;;;;2.43;1.83;;;25.30;58.90;;;;;;5107142;28;20211;-64
2021/07/18 00:22:03;;;;;;;3.80;2.23;;;25.30;58.90;;;;;;5091692;28;20196;-64
2021/07/18 00:24:35;;;;;;;3.73;2.07;;;25.40;58.90;;;;;;5109992;28;20208;-64
2021/07/18 00:27:08;;;;;;;2.57;1.93;;;25.30;58.90;;;;;;5083866;28;20209;-64
2021/07/18 00:29:40;;;;;;;4.07;2.20;;;25.30;58.90;;;;;;5100120;28;20219;-64
2021/07/18 00:32:11;;;;;;;2.43;2.17;;;25.30;59.50;;;;;;5104276;28;20197;-64
2021/07/18 00:34:43;;;;;;;2.40;2.13;;;25.30;58.90;;;;;;5105474;28;20196;-64
2021/07/18 00:37:17;;;;;;;2.70;1.90;;;25.30;58.90;;;;;;5103726;28;20710;-64
2021/07/18 00:39:49;;;;;;;2.50;1.80;;;25.30;58.90;;;;;;5108542;28;20249;-64
2021/07/18 00:42:21;;;;;;;2.90;1.70;;;25.30;58.90;;;;;;5100902;28;20250;-64
2021/07/18 00:44:49;;;;;;;2.57;2.07;;;25.30;58.90;;;;;;5103473;28;20204;-64
2021/07/18 00:47:21;;;;;;;2.27;1.77;;;25.30;58.90;;;;;;5094336;28;20901;-64
2021/07/18 00:49:51;;;;;;;2.83;1.97;;;25.30;58.90;;;;;;5097890;28;20224;-64
2021/07/18 00:52:31;;;;;;;4.03;2.13;;;25.30;58.90;;;;;;5107402;28;20578;-64
2021/07/18 00:55:04;;;;;;;2.20;1.80;;;25.30;58.90;;;;;;5103218;28;20641;-64
2021/07/18 00:57:33;;;;;;;2.70;1.97;;;25.30;59.00;;;;;;5106959;28;20199;-64
2021/07/18 01:00:07;;;;;;;2.47;1.80;;;25.30;59.00;;;;;;5099795;28;20634;-64
2021/07/18 01:02:38;;;;;;;2.37;1.70;;;25.20;59.00;;;;;;5099733;28;20199;-64
2021/07/18 01:05:12;;;;;;;2.43;1.80;;;25.30;59.20;;;;;;5085234;28;20208;-64
2021/07/18 01:07:44;;;;;;;1.97;1.80;;;25.20;59.20;;;;;;5106397;28;20237;-64
2021/07/18 01:10:16;;;;;;;3.20;2.00;;;25.20;59.20;;;;;;5104000;28;20227;-64
2021/07/18 01:12:51;;;;;;;2.03;1.83;;;25.30;59.30;;;;;;5108047;28;20531;-64
2021/07/18 01:15:44;;;;;;;2.63;2.00;;;25.20;59.20;;;;;;5094290;28;20251;-64
2021/07/18 01:18:14;;;;;;;2.80;1.87;;;25.30;59.30;;;;;;5101623;28;20829;-64
2021/07/18 01:20:49;;;;;;;3.80;2.33;;;25.30;59.20;;;;;;5108399;28;20200;-64
2021/07/18 01:23:25;;;;;;;2.50;2.07;;;25.20;59.20;;;;;;5104203;28;20771;-64
2021/07/18 01:25:57;;;;;;;2.03;1.73;;;25.30;59.30;;;;;;5106535;28;20185;-64
2021/07/18 01:28:26;;;;;;;2.37;2.10;;;25.20;59.20;;;;;;5102369;28;20284;-64
2021/07/18 01:30:55;;;;;;;4.20;1.90;;;25.20;59.20;;;;;;5089219;28;20676;-64
2021/07/18 01:33:27;;;;;;;2.17;1.87;;;25.20;59.20;;;;;;5096194;28;20645;-64
2021/07/18 01:36:00;;;;;;;1.87;1.77;;;25.20;59.20;;;;;;5096847;28;20196;-64
2021/07/18 01:38:35;;;;;;;2.90;1.97;;;25.20;59.20;;;;;;5062480;28;20193;-64
2021/07/18 01:41:06;;;;;;;2.00;1.60;;;25.20;59.20;;;;;;5095419;28;20208;-64
2021/07/18 01:43:38;;;;;;;2.93;1.97;;;25.20;59.20;;;;;;5103672;28;20192;-64
2021/07/18 01:46:07;;;;;;;2.53;1.80;;;25.20;59.20;;;;;;5107852;28;20282;-65
2021/07/18 01:48:37;;;;;;;2.10;1.80;;;25.20;59.30;;;;;;5106756;28;20440;-64
2021/07/18 01:51:09;;;;;;;2.70;1.90;;;25.10;59.20;;;;;;5105677;28;20220;-64
2021/07/18 01:53:38;;;;;;;5.03;2.00;;;25.20;59.30;;;;;;5102296;28;20681;-64
2021/07/18 01:56:09;;;;;;;2.40;2.20;;;25.20;59.30;;;;;;5100881;28;20691;-64
2021/07/18 01:58:40;;;;;;;4.33;2.20;;;25.20;59.30;;;;;;5108453;28;20189;-64
2021/07/18 02:01:10;;;;;;;2.13;1.87;;;25.10;59.20;;;;;;5103727;28;20200;-64
2021/07/18 02:03:46;;;;;;;2.23;2.03;;;25.10;59.30;;;;;;5107597;28;20200;-64
2021/07/18 02:06:17;;;;;;;2.20;2.00;;;25.10;59.30;;;;;;5098573;28;20203;-64
2021/07/18 02:08:51;;;;;;;2.23;1.93;;;25.10;59.30;;;;;;5107554;28;20215;-65
2021/07/18 02:11:28;;;;;;;2.33;2.00;;;25.10;59.20;;;;;;5099257;28;20204;-64
2021/07/18 02:14:03;;;;;;;1.93;1.77;;;25.10;59.30;;;;;;5103743;28;20552;-64
2021/07/18 02:16:32;;;;;;;2.87;2.20;;;25.10;59.30;;;;;;5102726;28;20204;-64
2021/07/18 02:19:10;;;;;;;2.37;1.90;;;25.10;59.30;;;;;;5106007;28;20265;-64
2021/07/18 02:21:41;;;;;;;2.90;1.77;;;25.10;59.20;;;;;;5097221;28;20189;-64
2021/07/18 02:24:13;;;;;;;2.33;2.13;;;25.10;59.20;;;;;;5104013;28;20188;-64
2021/07/18 02:26:41;;;;;;;3.70;2.03;;;25.10;59.80;;;;;;5108565;28;20578;-64
2021/07/18 02:29:12;;;;;;;2.27;2.07;;;25.10;59.20;;;;;;5098426;28;20418;-64
2021/07/18 02:31:45;;;;;;;2.30;2.10;;;25.10;59.20;;;;;;5104350;28;20207;-64
2021/07/18 02:34:14;;;;;;;2.20;2.00;;;25.10;59.20;;;;;;5106311;28;20216;-64
2021/07/18 02:36:46;;;;;;;2.20;2.00;;;25.10;59.20;;;;;;5110787;28;20212;-64
2021/07/18 02:39:15;;;;;;;3.00;1.93;;;25.00;59.10;;;;;;5101531;28;20203;-64
2021/07/18 02:41:46;;;;;;;3.03;1.83;;;25.00;59.10;;;;;;5100554;28;20253;-65
2021/07/18 02:44:19;;;;;;;2.57;2.20;;;25.00;59.10;;;;;;5105810;28;20196;-64
2021/07/18 02:46:51;;;;;;;2.87;2.10;;;25.00;59.10;;;;;;5108577;27;20208;-64
2021/07/18 02:49:22;;;;;;;2.03;1.83;;;25.00;59.10;;;;;;5106819;28;20196;-64
2021/07/18 02:51:53;;;;;;;2.63;1.90;;;25.00;59.10;;;;;;5102805;28;20205;-64
2021/07/18 02:54:22;;;;;;;2.33;2.07;;;25.00;59.10;;;;;;5093571;28;20876;-64
2021/07/18 02:56:52;;;;;;;2.90;2.20;;;25.00;59.10;;;;;;5103231;28;20197;-64
2021/07/18 02:59:24;;;;;;;4.33;2.03;;;25.00;59.10;;;;;;5106470;28;20189;-64
2021/07/18 03:01:53;;;;;;;2.00;1.90;;;25.00;59.10;;;;;;5103987;28;20208;-64
2021/07/18 03:04:25;;;;;;;2.30;2.10;;;25.00;59.10;;;;;;5111450;28;20193;-64
2021/07/18 03:06:54;;;;;;;2.20;2.00;;;25.00;59.10;;;;;;5100976;28;20221;-64
2021/07/18 03:09:26;;;;;;;2.83;2.20;;;25.00;59.10;;;;;;5094928;28;20193;-64
2021/07/18 03:11:57;;;;;;;4.03;2.30;;;25.00;59.10;;;;;;5105693;28;20199;-64
2021/07/18 03:14:30;;;;;;;2.13;1.93;;;25.00;59.10;;;;;;5110843;28;20274;-64
2021/07/18 03:17:00;;;;;;;3.07;2.30;;;25.00;59.10;;;;;;5105719;28;20216;-64
2021/07/18 03:19:30;;;;;;;3.07;2.23;;;25.00;59.10;;;;;;5109703;28;20197;-63
2021/07/18 03:22:00;;;;;;;2.93;2.20;;;25.00;59.10;;;;;;5103687;28;20185;-64
2021/07/18 03:24:36;;;;;;;2.20;1.93;;;25.00;59.10;;;;;;5104423;28;20192;-64
2021/07/18 03:27:09;;;;;;;2.53;2.20;;;25.00;59.10;;;;;;5102823;28;20197;-64
2021/07/18 03:29:39;;;;;;;4.10;2.17;;;25.00;59.10;;;;;;5108091;28;20195;-64
2021/07/18 03:32:10;;;;;;;3.90;2.67;;;24.90;59.00;;;;;;5108324;28;20636;-64
2021/07/18 03:34:40;;;;;;;2.23;2.03;;;25.00;59.00;;;;;;5100506;28;20209;-64
2021/07/18 03:37:11;;;;;;;2.87;2.20;;;25.00;59.00;;;;;;5110230;28;20188;-64
2021/07/18 03:39:40;;;;;;;2.53;2.10;;;24.90;59.00;;;;;;5102673;28;20874;-64
2021/07/18 03:42:10;;;;;;;4.53;2.50;;;24.90;59.00;;;;;;5111538;28;20787;-64
2021/07/18 03:44:40;;;;;;;2.33;2.13;;;24.90;59.00;;;;;;5103498;28;20620;-64
2021/07/18 03:47:11;;;;;;;2.30;2.10;;;24.90;59.00;;;;;;5110089;28;20287;-64
2021/07/18 03:49:46;;;;;;;2.83;2.20;;;24.90;59.00;;;;;;5104377;28;20216;-64
2021/07/18 03:52:18;;;;;;;3.10;2.30;;;24.90;59.00;;;;;;5108304;28;20192;-64
2021/07/18 03:54:48;;;;;;;3.70;2.40;;;24.90;59.00;;;;;;5105238;28;20188;-64
2021/07/18 03:57:18;;;;;;;2.87;2.10;;;24.90;59.00;;;;;;5107639;28;20200;-64
2021/07/18 03:59:48;;;;;;;2.47;2.23;;;24.90;59.00;;;;;;5105472;28;20669;-64
2021/07/18 04:02:18;;;;;;;3.90;2.57;;;24.80;58.90;;;;;;5110227;28;20696;-65
2021/07/18 04:04:51;;;;;;;3.10;2.40;;;24.80;58.90;;;;;;5105039;28;20187;-65
2021/07/18 04:07:21;;;;;;;3.30;2.40;;;24.80;59.00;;;;;;5104779;28;20258;-64
2021/07/18 04:09:49;;;;;;;2.93;2.40;;;24.70;59.10;;;;;;5091568;28;20209;-64
2021/07/18 04:12:19;;;;;;;3.27;2.53;;;24.70;59.20;;;;;;5104652;28;20197;-63
2021/07/18 04:14:50;;;;;;;3.10;2.53;;;24.70;59.20;;;;;;5094585;28;20224;-63
2021/07/18 04:17:18;;;;;;;3.67;2.57;;;24.70;59.10;;;;;;5100479;28;20605;-63
2021/07/18 04:19:48;;;;;;;4.33;2.83;;;24.70;59.20;;;;;;5105953;28;20192;-62
2021/07/18 04:22:17;;;;;;;3.97;2.67;;;24.70;59.30;;;;;;5068953;28;20238;-64
2021/07/18 04:24:49;;;;;;;3.90;2.50;;;24.70;59.40;;;;;;5106043;28;20197;-64
2021/07/18 04:27:20;;;;;;;3.23;2.50;;;24.70;59.40;;;;;;5102564;28;20231;-64
2021/07/18 04:29:51;;;;;;;3.63;2.90;;;24.60;59.40;;;;;;5096792;28;20550;-64
2021/07/18 04:32:22;;;;;;;5.67;2.73;;;24.60;59.40;;;;;;5105740;28;20627;-64
2021/07/18 04:34:52;;;;;;;4.07;3.10;;;24.60;59.40;;;;;;5106736;28;20208;-64
2021/07/18 04:37:25;;;;;;;4.17;3.30;;;24.60;59.50;;;;;;5103931;28;20253;-63
2021/07/18 04:39:57;;;;;;;4.30;3.77;;;24.60;59.50;;;;;;5107570;28;20192;-63
2021/07/18 04:42:26;;;;;;;4.23;3.10;;;24.60;59.60;;;;;;5105417;28;20215;-63
2021/07/18 04:45:10;;;;;;;3.63;3.33;;;24.50;59.70;;;;;;5100202;28;20232;-63
2021/07/18 04:47:59;;;;;;;3.73;3.43;;;24.50;59.80;;;;;;5109329;28;20189;-63
2021/07/18 04:50:30;;;;;;;4.47;3.30;;;24.40;59.90;;;;;;5098970;28;20222;-63
2021/07/18 04:53:01;;;;;;;3.80;3.40;;;24.40;60.00;;;;;;5107698;28;20220;-63
2021/07/18 04:55:32;;;;;;;4.10;3.20;;;24.40;60.00;;;;;;5102632;28;20196;-64
2021/07/18 04:58:04;;;;;;;3.73;3.33;;;24.40;60.00;;;;;;5102296;28;20233;-63
2021/07/18 05:00:34;;;;;;;4.50;3.60;;;24.50;60.10;;;;;;5104759;28;20643;-63
2021/07/18 05:03:06;;;;;;;3.87;3.33;;;24.50;60.10;;;;;;5088614;28;20232;-63
2021/07/18 05:05:37;;;;;;;3.83;3.40;;;24.50;60.10;;;;;;5103375;28;20739;-64
2021/07/18 05:08:07;;;;;;;5.07;3.60;;;24.50;60.00;;;;;;5104209;28;20211;-63
2021/07/18 05:10:38;;;;;;;5.47;3.30;;;24.50;60.10;;;;;;5105535;28;20200;-64
2021/07/18 05:13:09;;;;;;;3.80;3.50;;;24.50;60.10;;;;;;5103914;28;20201;-64
2021/07/18 05:15:42;;;;;;;4.47;3.67;;;24.50;60.10;;;;;;5098391;28;20220;-63
2021/07/18 05:18:14;;;;;;;4.27;3.80;;;24.50;60.20;;;;;;5101721;28;20212;-62
2021/07/18 05:20:43;;;;;;;5.33;3.70;;;24.50;60.40;;;;;;5090860;28;20253;-63
2021/07/18 05:23:16;;;;;;;4.20;3.73;;;24.40;60.40;;;;;;5101795;28;20232;-63
2021/07/18 05:25:46;;;;;;;4.63;3.90;;;24.40;60.40;;;;;;5093170;28;20196;-64
2021/07/18 05:28:16;;;;;;;4.40;3.90;;;24.40;60.60;;;;;;5099272;28;20584;-64
2021/07/18 05:30:52;;;;;;;4.60;4.10;;;24.30;60.70;;;;;;5106309;28;20232;-62
2021/07/18 05:33:22;;;;;;;4.40;3.70;;;24.30;60.70;;;;;;5098870;28;20283;-62
2021/07/18 05:35:52;;;;;;;4.30;3.07;;;24.30;60.80;;;;;;5095609;28;20216;-62
2021/07/18 05:38:22;;;;;;;3.80;3.50;;;24.30;60.80;;;;;;5102237;28;20222;-62
2021/07/18 05:41:01;;;;;;;3.73;3.43;;;24.30;60.80;;;;;;5107026;28;20562;-62
2021/07/18 05:43:33;;;;;;;3.47;3.17;;;24.30;60.80;;;;;;5104420;28;20211;-62
2021/07/18 05:46:03;;;;;;;3.93;3.40;;;24.30;60.70;;;;;;5105768;28;20188;-63
2021/07/18 05:48:36;;;;;;;4.40;3.47;;;24.30;60.70;;;;;;5105782;28;20228;-63
2021/07/18 05:51:07;;;;;;;4.27;3.40;;;24.40;60.60;;;;;;5102549;28;20270;-64
2021/07/18 05:53:37;;;;;;;4.07;3.67;;;24.40;60.50;;;;;;5106559;28;20207;-64
2021/07/18 05:56:08;;;;;;;4.10;3.10;;;24.40;60.50;;;;;;5102040;28;20665;-63
2021/07/18 05:58:37;;;;;;;3.37;3.07;;;24.40;60.60;;;;;;5097517;28;20203;-63
2021/07/18 06:01:09;;;;;;;3.40;3.10;;;24.40;60.60;;;;;;5099381;28;20207;-63
2021/07/18 06:03:41;;;;;;;3.20;2.90;;;24.40;60.50;;;;;;5099053;28;20243;-64
2021/07/18 06:06:11;;;;;;;3.00;2.70;;;24.40;60.50;;;;;;5103124;28;20696;-64
2021/07/18 06:08:38;;;;;;;3.00;2.70;;;24.50;60.50;;;;;;5105774;28;20223;-64
2021/07/18 06:11:09;;;;;;;3.60;3.30;;;24.50;60.40;;;;;;5107104;28;20709;-64
2021/07/18 06:13:41;;;;;;;3.60;3.30;;;24.50;60.40;;;;;;5105318;28;20593;-64
2021/07/18 06:16:17;;;;;;;4.00;3.40;;;24.50;60.40;;;;;;5106089;28;20228;-64
2021/07/18 06:18:51;;;;;;;3.60;3.20;;;24.50;60.40;;;;;;5105884;28;20205;-64
2021/07/18 06:21:25;;;;;;;3.10;2.90;;;24.50;60.50;;;;;;5106580;28;20219;-63
2021/07/18 06:23:55;;;;;;;3.43;3.13;;;24.50;60.50;;;;;;5107047;28;20196;-62
2021/07/18 06:26:30;;;;;;;3.30;3.00;;;24.60;60.50;;;;;;5106641;28;20207;-64
2021/07/18 06:29:02;;;;;;;2.90;2.70;;;24.60;60.40;;;;;;5104510;28;20609;-63
2021/07/18 06:31:30;;;;;;;3.20;2.90;;;24.60;60.40;;;;;;5098558;28;20220;-63
2021/07/18 06:34:02;;;;;;;3.23;2.83;;;24.60;60.30;;;;;;5105685;28;20207;-63
2021/07/18 06:36:34;;;;;;;3.20;2.90;;;24.60;60.40;;;;;;5110106;28;20191;-63
2021/07/18 06:39:08;;;;;;;3.10;2.90;;;24.60;60.40;;;;;;5097478;28;20208;-63
2021/07/18 06:41:41;;;;;;;3.03;2.73;;;24.60;60.40;;;;;;5099440;28;20208;-64
2021/07/18 06:44:10;;;;;;;3.80;2.67;;;24.70;60.40;;;;;;5099745;28;20213;-64
2021/07/18 06:46:40;;;;;;;4.03;2.70;;;24.60;60.40;;;;;;5089953;28;20217;-64
2021/07/18 06:49:11;;;;;;;3.13;2.80;;;24.60;60.40;;;;;;5099301;28;20231;-64
2021/07/18 06:51:41;;;;;;;3.00;2.80;;;24.60;60.40;;;;;;5109522;28;20220;-64
2021/07/18 06:54:12;;;;;;;3.67;2.73;;;24.60;60.50;;;;;;5103490;28;20206;-64
2021/07/18 06:56:44;;;;;;;2.77;2.57;;;24.60;60.50;;;;;;5101355;28;20227;-63
2021/07/18 06:59:19;;;;;;;3.23;2.80;;;24.60;60.40;;;;;;5105533;28;20192;-62
2021/07/18 07:01:59;;;;;;;5.40;2.80;;;24.60;60.50;;;;;;5100993;28;20193;-64
2021/07/18 07:04:36;;;;;;;2.93;2.73;;;24.60;60.60;;;;;;5103584;28;20535;-63
2021/07/18 07:07:08;;;;;;;3.10;2.80;;;24.60;60.70;;;;;;5100491;28;20512;-64
2021/07/18 07:09:37;;;;;;;3.57;2.87;;;24.60;60.60;;;;;;5110220;28;20312;-64
2021/07/18 07:12:06;;;;;;;4.33;2.87;;;24.70;60.60;;;;;;5102564;28;20215;-63
2021/07/18 07:14:37;;;;;;;4.13;2.60;;;24.60;60.50;;;;;;5106392;28;20613;-63
2021/07/18 07:17:07;;;;;;;3.23;2.80;;;24.70;60.60;;;;;;5104582;28;20227;-64
2021/07/18 07:19:39;;;;;;;2.90;2.70;;;24.70;60.60;;;;;;5106431;28;20193;-64
2021/07/18 07:22:11;;;;;;;3.50;2.37;;;24.70;60.60;;;;;;5106505;28;20528;-64
2021/07/18 07:24:41;;;;;;;3.43;2.80;;;24.70;60.60;;;;;;5110001;28;20260;-63
2021/07/18 07:27:13;;;;;;;2.87;2.67;;;24.70;60.80;;;;;;5078721;28;20654;-63
2021/07/18 07:29:41;;;;;;;5.93;3.63;;;24.70;60.80;;;;;;5106943;28;20205;-63
2021/07/18 07:32:10;;;;;;;6.27;3.10;;;24.70;60.70;;;;;;5100547;28;20216;-63
2021/07/18 07:34:38;;;;;;;2.80;2.53;;;24.70;61.00;;;;;;5105489;28;20197;-63
2021/07/18 07:37:08;;;;;;;6.03;2.60;;;24.70;61.00;;;;;;5105465;28;20734;-64
2021/07/18 07:39:37;;;;;;;5.20;2.80;;;24.70;61.00;;;;;;5101359;28;20203;-64
2021/07/18 07:42:15;;;;;;;3.67;2.77;;;24.70;60.80;;;;;;5115113;28;20297;-63
2021/07/18 07:44:48;;;;;;;3.13;2.30;;;24.70;60.80;;;;;;5105866;28;20656;-62
2021/07/18 07:47:19;;;;;;;32.80;10.70;;;24.80;60.80;;;;;;5101064;28;20227;-63
2021/07/18 07:49:47;;;;;;;36.07;13.37;;;24.80;61.40;;;;;;5084821;28;20201;-64
2021/07/18 07:52:19;;;;;;;42.87;14.97;;;24.80;61.60;;;;;;5100568;28;20217;-62
2021/07/18 07:54:55;;;;;;;46.27;15.67;;;24.80;61.90;;;;;;5105392;28;20195;-63
2021/07/18 07:57:27;;;;;;;36.50;15.47;;;24.80;62.20;;;;;;5098794;28;20280;-63
2021/07/18 07:59:58;;;;;;;38.23;14.70;;;24.80;62.10;;;;;;5107025;28;20279;-63
2021/07/18 08:02:31;;;;;;;33.57;13.83;;;24.80;61.90;;;;;;5111357;28;20276;-63
2021/07/18 08:05:02;;;;;;;35.87;12.87;;;24.90;61.90;;;;;;5109795;28;20211;-62
2021/07/18 08:07:30;;;;;;;32.43;11.83;;;24.90;61.80;;;;;;5114348;28;20288;-62
2021/07/18 08:10:18;;;;;;;27.37;12.10;;;24.90;61.70;;;;;;5105927;28;20227;-62
2021/07/18 08:12:51;;;;;;;23.87;10.70;;;24.90;61.50;;;;;;5098639;27;20593;-63
2021/07/18 08:15:25;;;;;;;31.73;10.83;;;24.90;61.50;;;;;;5094861;28;20233;-61
2021/07/18 08:18:05;;;;;;;17.83;8.20;;;24.90;61.70;;;;;;5094222;28;20235;-61
2021/07/18 08:20:47;;;;;;;14.80;7.50;;;24.90;61.30;;;;;;5097191;28;20291;-61
2021/07/18 08:23:18;;;;;;;15.73;7.77;;;24.90;61.20;;;;;;5102275;28;20197;-62
2021/07/18 08:25:49;;;;;;;15.53;6.97;;;25.00;62.20;;;;;;5099354;28;20204;-61
2021/07/18 08:28:22;;;;;;;12.77;6.63;;;25.00;61.50;;;;;;5102438;28;20688;-62
2021/07/18 08:30:54;;;;;;;10.07;5.77;;;25.00;61.20;;;;;;5104728;28;20212;-61
2021/07/18 08:33:29;;;;;;;12.37;5.80;;;25.10;61.00;;;;;;5105425;28;20210;-61
2021/07/18 08:35:57;;;;;;;7.47;5.20;;;25.00;60.60;;;;;;5106438;28;20231;-63
2021/07/18 08:38:29;;;;;;;10.27;5.90;;;25.00;60.70;;;;;;5105893;28;20200;-63
2021/07/18 08:41:03;;;;;;;11.33;5.53;;;25.00;60.60;;;;;;5107854;28;20570;-62
2021/07/18 08:43:47;;;;;;;7.00;4.40;;;25.00;60.50;;;;;;5104905;28;20221;-62
2021/07/18 08:46:20;;;;;;;8.53;4.93;;;25.10;60.80;;;;;;5102106;28;20208;-62
2021/07/18 08:48:51;;;;;;;6.27;4.63;;;25.10;60.70;;;;;;5090755;28;20640;-62
2021/07/18 08:51:20;;;;;;;7.50;4.83;;;25.00;60.20;;;;;;5102494;28;20217;-63
2021/07/18 08:53:55;;;;;;;8.10;4.80;;;25.10;59.80;;;;;;5097935;28;20300;-63
2021/07/18 08:56:38;;;;;;;7.03;4.70;;;25.10;59.90;;;;;;5100299;28;20231;-63
2021/07/18 08:59:12;;;;;;;5.87;4.13;;;25.10;59.90;;;;;;5107755;28;20203;-62
2021/07/18 09:01:44;;;;;;;4.83;3.90;;;25.10;60.00;;;;;;5100115;28;20207;-61
2021/07/18 09:04:14;;;;;;;5.50;3.80;;;25.10;59.90;;;;;;5103635;28;20196;-64
2021/07/18 09:06:45;;;;;;;6.60;3.97;;;25.10;59.20;;;;;;5100738;28;20257;-63
2021/07/18 09:09:23;;;;;;;3.97;3.67;;;25.10;58.90;;;;;;5098301;28;20199;-63
2021/07/18 09:12:15;;;;;;;4.72;3.85;;;25.10;59.00;;;;;;5090314;28;20424;-66
2021/07/18 09:14:47;;;;;;;4.80;3.50;;;25.10;59.40;;;;;;5104094;28;20615;-66
2021/07/18 09:17:18;;;;;;;3.90;3.40;;;25.20;59.50;;;;;;5104717;28;20509;-65
2021/07/18 09:20:14;;;;;;;4.53;3.23;;;25.30;59.60;;;;;;5103749;28;20667;-66
2021/07/18 09:22:46;;;;;;;5.93;3.53;;;25.40;59.10;;;;;;5101004;28;20649;-66
2021/07/18 09:25:14;;;;;;;4.73;3.87;;;25.40;58.70;;;;;;5103368;28;20205;-67
2021/07/18 09:27:43;;;;;;;4.90;3.53;;;25.40;58.30;;;;;;5104030;28;20236;-66
2021/07/18 09:30:19;;;;;;;5.40;3.80;;;25.50;58.60;;;;;;5103488;28;20215;-67
2021/07/18 09:32:50;;;;;;;7.73;3.30;;;25.50;58.20;;;;;;5103722;28;20912;-65
2021/07/18 09:35:20;;;;;;;4.67;3.40;;;25.60;58.40;;;;;;5097918;28;20208;-65
2021/07/18 09:37:54;;;;;;;4.17;3.03;;;25.70;58.30;;;;;;5097440;28;20188;-65
2021/07/18 09:40:27;;;;;;;3.67;3.33;;;25.70;58.20;;;;;;5095123;28;20196;-66
2021/07/18 09:43:02;;;;;;;3.57;3.27;;;25.70;57.90;;;;;;5095338;28;20621;-67
2021/07/18 09:45:40;;;;;;;3.90;3.50;;;25.80;57.70;;;;;;5099544;28;20216;-67
2021/07/18 09:48:14;;;;;;;7.47;2.63;;;25.80;57.40;;;;;;5101969;28;20215;-64
2021/07/18 09:50:46;;;;;;;5.73;3.33;;;25.90;57.70;;;;;;5096982;28;20184;-65
2021/07/18 09:53:22;;;;;;;3.30;2.43;;;25.90;57.50;;;;;;5102762;28;20794;-66
2021/07/18 09:55:58;;;;;;;5.83;2.87;;;26.00;57.80;;;;;;5097936;28;20192;-65
2021/07/18 09:58:32;;;;;;;3.30;3.00;;;26.10;57.90;;;;;;5086388;28;20203;-66
2021/07/18 10:01:16;;;;;;;3.83;3.03;;;26.10;57.80;;;;;;5097381;28;20188;-65
2021/07/18 10:03:55;;;;;;;4.20;2.87;;;26.20;58.00;;;;;;5102056;28;20188;-65
2021/07/18 10:06:32;;;;;;;4.97;3.33;;;26.20;58.20;;;;;;5087968;28;20196;-67
2021/07/18 10:09:09;;;;;;;3.33;3.03;;;26.20;57.00;;;;;;5101197;28;20200;-66
2021/07/18 10:11:40;;;;;;;4.30;2.80;;;26.30;57.10;;;;;;5093335;28;20209;-66
2021/07/18 10:14:13;;;;;;;5.80;3.67;;;26.40;56.80;;;;;;5094043;28;20201;-66
2021/07/18 10:16:42;;;;;;;7.03;3.00;;;26.40;56.60;;;;;;5094444;28;20232;-66
2021/07/18 10:19:14;;;;;;;5.27;3.43;;;26.40;56.40;;;;;;5098291;28;20204;-65
2021/07/18 10:21:48;;;;;;;5.93;3.10;;;26.40;57.30;;;;;;5093352;28;20215;-66
2021/07/18 10:24:21;;;;;;;3.90;2.80;;;26.40;56.70;;;;;;5096283;28;20200;-62
2021/07/18 10:26:52;;;;;;;4.07;3.10;;;26.40;56.60;;;;;;5108161;28;20231;-61
2021/07/18 10:29:20;;;;;;;3.50;3.20;;;26.50;56.30;;;;;;5097263;28;20199;-62
2021/07/18 10:31:53;;;;;;;3.80;3.13;;;26.50;56.10;;;;;;5093411;28;20217;-64
2021/07/18 10:34:34;;;;;;;4.17;2.70;;;26.40;56.20;;;;;;5102508;28;20188;-61
2021/07/18 10:37:24;;;;;;;3.67;2.73;;;26.40;56.40;;;;;;5099363;28;20196;-63
2021/07/18 10:40:10;;;;;;;3.87;2.80;;;26.40;56.70;;;;;;5097908;28;20199;-62
2021/07/18 10:42:43;;;;;;;3.27;2.87;;;26.40;56.70;;;;;;5100302;28;20258;-64
2021/07/18 10:45:28;;;;;;;4.00;2.40;;;26.50;56.50;;;;;;5101037;28;20197;-63
2021/07/18 10:48:05;;;;;;;6.20;2.83;;;26.50;56.70;;;;;;5102646;28;20205;-63
2021/07/18 10:50:59;;;;;;;5.17;3.20;;;26.50;56.70;;;;;;5108454;28;20211;-61
2021/07/18 10:53:31;;;;;;;3.60;2.67;;;26.50;56.00;;;;;;5104113;28;20208;-62
2021/07/18 10:56:07;;;;;;;3.70;2.70;;;26.50;56.00;;;;;;5097896;28;20219;-62
2021/07/18 10:58:47;;;;;;;3.57;2.80;;;26.50;56.40;;;;;;5095239;28;20763;-62
2021/07/18 11:01:31;;;;;;;5.77;3.27;;;26.50;56.60;;;;;;5091369;28;20303;-63
2021/07/18 11:04:06;;;;;;;5.03;3.10;;;26.60;56.30;;;;;;5107470;28;20201;-62
2021/07/18 11:06:39;;;;;;;4.67;3.47;;;26.50;55.80;;;;;;5109113;28;20184;-61
2021/07/18 11:09:24;;;;;;;3.57;2.97;;;26.50;55.60;;;;;;5107432;28;20637;-63
2021/07/18 11:11:57;;;;;;;6.00;3.40;;;26.50;56.00;;;;;;5101646;28;20353;-63
2021/07/18 11:14:35;;;;;;;3.10;2.80;;;26.60;56.40;;;;;;5092250;28;20193;-63
2021/07/18 11:17:23;;;;;;;3.63;2.83;;;26.60;56.50;;;;;;5105865;28;20292;-63
2021/07/18 11:20:05;;;;;;;3.20;2.90;;;26.60;56.10;;;;;;5101730;28;20595;-63
2021/07/18 11:23:01;;;;;;;3.33;3.03;;;26.60;55.70;;;;;;5104623;28;20204;-64
2021/07/18 11:25:50;;;;;;;4.63;2.73;;;26.60;55.30;;;;;;5101112;28;20271;-64
2021/07/18 11:28:36;;;;;;;5.73;2.83;;;26.70;55.40;;;;;;5103362;28;20200;-64
2021/07/18 11:31:12;;;;;;;3.20;2.90;;;26.70;55.40;;;;;;5106344;28;20927;-63
2021/07/18 11:34:21;;;;;;;3.83;2.97;;;26.70;55.10;;;;;;5107308;28;20209;-63
2021/07/18 11:36:52;;;;;;;3.57;3.00;;;26.70;54.60;;;;;;5092338;28;20218;-63
2021/07/18 11:39:23;;;;;;;4.27;2.50;;;26.80;55.10;;;;;;5102219;28;20293;-65
2021/07/18 11:41:56;;;;;;;6.23;3.03;;;26.80;55.00;;;;;;5098028;28;20808;-65
2021/07/18 11:44:30;;;;;;;4.03;3.13;;;26.80;54.60;;;;;;5085281;28;20644;-66
2021/07/18 11:47:10;;;;;;;3.10;2.60;;;26.90;54.60;;;;;;5099509;27;20828;-66
2021/07/18 11:49:43;;;;;;;3.70;3.33;;;26.90;54.40;;;;;;5103187;28;20227;-65
2021/07/18 11:52:16;;;;;;;3.53;2.80;;;27.00;54.10;;;;;;5096571;28;20216;-66
2021/07/18 11:54:48;;;;;;;3.30;3.00;;;27.10;54.60;;;;;;5108774;28;20192;-67
2021/07/18 11:57:19;;;;;;;4.37;3.20;;;27.10;54.20;;;;;;5103083;27;20259;-68
2021/07/18 11:59:52;;;;;;;8.60;3.43;;;27.20;54.30;;;;;;5093028;28;20253;-67
2021/07/18 12:02:24;;;;;;;4.17;3.70;;;27.20;54.30;;;;;;5104329;28;20201;-68
2021/07/18 12:05:06;;;;;;;4.23;3.47;;;27.30;54.40;;;;;;5108824;28;20201;-67
2021/07/18 12:07:34;;;;;;;4.57;3.20;;;27.30;54.50;;;;;;5101640;28;20208;-66
2021/07/18 12:10:20;;;;;;;5.47;3.40;;;27.40;54.50;;;;;;5110831;28;20742;-66
2021/07/18 12:12:52;;;;;;;4.07;3.23;;;27.50;54.70;;;;;;5093063;28;20273;-66
2021/07/18 12:15:23;;;;;;;4.40;3.23;;;27.50;54.80;;;;;;5106997;28;20220;-65
2021/07/18 12:18:03;;;;;;;4.83;3.10;;;27.60;54.80;;;;;;5101072;28;20199;-65
2021/07/18 12:20:34;;;;;;;3.57;3.13;;;27.60;55.00;;;;;;5101155;28;20185;-66
2021/07/18 12:23:12;;;;;;;3.93;2.93;;;27.70;54.80;;;;;;5108430;28;20702;-67
2021/07/18 12:25:45;;;;;;;5.83;2.87;;;27.70;54.80;;;;;;5105261;28;20200;-68
2021/07/18 12:28:17;;;;;;;5.67;2.87;;;27.70;54.90;;;;;;5110306;28;20649;-64
2021/07/18 12:30:54;;;;;;;3.80;2.60;;;27.80;54.80;;;;;;5106750;28;20712;-63
2021/07/18 12:33:27;;;;;;;3.77;2.73;;;27.80;54.90;;;;;;5110356;28;20673;-64
2021/07/18 12:36:05;;;;;;;5.23;2.90;;;27.80;54.80;;;;;;5106710;28;20196;-63
2021/07/18 12:38:36;;;;;;;3.10;2.80;;;27.80;54.50;;;;;;5114147;28;20200;-64
2021/07/18 12:41:06;;;;;;;3.63;2.67;;;27.80;54.30;;;;;;5099123;28;20837;-64
2021/07/18 12:43:41;;;;;;;3.00;2.70;;;27.80;54.40;;;;;;5097437;28;20206;-64
2021/07/18 12:46:11;;;;;;;6.43;3.17;;;27.80;54.60;;;;;;5099692;28;20211;-63
2021/07/18 12:48:44;;;;;;;3.33;3.03;;;27.80;54.70;;;;;;5086110;28;20269;-64
2021/07/18 12:51:20;;;;;;;4.90;2.80;;;27.80;54.80;;;;;;5095958;28;20847;-66
2021/07/18 12:54:00;;;;;;;3.87;3.07;;;27.80;55.80;;;;;;5098501;28;20219;-66
2021/07/18 12:56:54;;;;;;;2.90;2.57;;;27.90;56.20;;;;;;5102698;28;20215;-67
2021/07/18 12:59:31;;;;;;;5.77;3.27;;;28.00;56.10;;;;;;5098104;28;20220;-66
2021/07/18 13:02:14;;;;;;;3.47;2.97;;;28.00;55.30;;;;;;5106912;28;20207;-66
2021/07/18 13:04:42;;;;;;;3.60;2.93;;;28.10;55.20;;;;;;5104664;28;20199;-65
2021/07/18 13:07:11;;;;;;;5.40;2.90;;;28.10;55.20;;;;;;5103822;28;20193;-66
2021/07/18 13:09:41;;;;;;;3.30;2.97;;;28.10;54.90;;;;;;5104005;28;20582;-66
2021/07/18 13:12:15;;;;;;;2.93;2.70;;;28.10;54.70;;;;;;5105207;28;20663;-66
2021/07/18 13:14:44;;;;;;;3.07;2.87;;;28.10;54.60;;;;;;5104095;28;20257;-65
2021/07/18 13:17:16;;;;;;;4.10;2.70;;;28.20;54.60;;;;;;5098327;28;21121;-66